Time;durP1;ratioP1;P1;durP2;ratioP2;P2;SDS_P1;SDS_P2;PMS_P1;PMS_P2;Temp;Humidity;BMP_temperature;BMP_pressure;BME280_temperature;BME280_humidity;BME280_pressure;Samples;Min_cycle;Max_cycle;Signal;HPM_P1;HPM_P2
2023/09/02 00:00:37;;;;;;;;;;;;;;;24.60;40.16;99918.78;3161998;28;20465;-74
2023/09/02 00:02:08;;;;;;;;;;;;;;;24.57;40.18;99919.09;3164709;28;19970;-74
2023/09/02 00:03:39;;;;;;;;;;;;;;;24.56;40.20;99920.09;3160339;28;20027;-74
2023/09/02 00:05:11;;;;;;;;;;;;;;;24.55;40.61;99918.44;3164760;28;19994;-74
2023/09/02 00:06:41;;;;;;;;;;;;;;;24.55;40.44;99923.75;3164552;28;20014;-74
2023/09/02 00:08:13;;;;;;;;;;;;;;;24.56;40.22;99920.09;3164662;28;19966;-73
2023/09/02 00:09:43;;;;;;;;;;;;;;;24.57;40.20;99924.41;3165024;28;19966;-74
2023/09/02 00:11:15;;;;;;;;;;;;;;;24.57;40.69;99929.75;3164891;28;19928;-74
2023/09/02 00:12:45;;;;;;;;;;;;;;;24.58;40.46;99926.09;3163999;28;19943;-74
2023/09/02 00:14:17;;;;;;;;;;;;;;;24.59;40.40;99925.09;3159880;28;19934;-74
2023/09/02 00:15:49;;;;;;;;;;;;;;;24.58;40.56;99926.09;3164864;28;19935;-73
2023/09/02 00:17:21;;;;;;;;;;;;;;;24.57;40.63;99924.41;3164345;28;19939;-74
2023/09/02 00:18:52;;;;;;;;;;;;;;;24.56;40.37;99920.09;3160682;28;21050;-74
2023/09/02 00:20:24;;;;;;;;;;;;;;;24.55;40.55;99920.22;3166990;28;19927;-74
2023/09/02 00:21:54;;;;;;;;;;;;;;;24.54;40.54;99922.06;3167037;28;19928;-74
2023/09/02 00:23:26;;;;;;;;;;;;;;;24.54;40.73;99926.56;3167511;28;19984;-74
2023/09/02 00:24:56;;;;;;;;;;;;;;;24.55;40.39;99922.91;3164290;28;19935;-74
2023/09/02 00:26:28;;;;;;;;;;;;;;;24.54;40.30;99924.72;3167585;28;19928;-74
2023/09/02 00:27:58;;;;;;;;;;;;;;;24.55;40.40;99926.41;3167635;28;19935;-74
2023/09/02 00:29:30;;;;;;;;;;;;;;;24.52;40.82;99930.22;3166961;28;19928;-74
2023/09/02 00:31:02;;;;;;;;;;;;;;;24.46;40.92;99922.00;3167054;28;20289;-74
2023/09/02 00:32:33;;;;;;;;;;;;;;;24.41;41.44;99925.13;3165216;28;19928;-73
2023/09/02 00:34:05;;;;;;;;;;;;;;;24.36;41.67;99923.91;3164829;28;19988;-72
2023/09/02 00:35:36;;;;;;;;;;;;;;;24.29;42.02;99929.03;3167410;28;19932;-74
2023/09/02 00:37:07;;;;;;;;;;;;;;;24.23;42.04;99929.63;3167329;28;19992;-74
2023/09/02 00:38:38;;;;;;;;;;;;;;;24.21;42.14;99924.47;3167142;28;19935;-73
2023/09/02 00:40:13;;;;;;;;;;;;;;;24.20;42.18;99928.13;3166995;28;19975;-73
2023/09/02 00:41:46;;;;;;;;;;;;;;;24.19;42.39;99928.25;3166863;28;19928;-74
2023/09/02 00:43:18;;;;;;;;;;;;;;;24.16;42.32;99931.22;3166840;27;19957;-73
2023/09/02 00:44:49;;;;;;;;;;;;;;;24.14;42.30;99931.41;3166797;28;19974;-74
2023/09/02 00:46:22;;;;;;;;;;;;;;;24.07;42.91;99927.66;3167025;28;20411;-74
2023/09/02 00:47:53;;;;;;;;;;;;;;;23.99;42.85;99928.44;3162235;28;19935;-73
2023/09/02 00:49:25;;;;;;;;;;;;;;;23.94;43.09;99935.19;3167239;28;19935;-74
2023/09/02 00:50:56;;;;;;;;;;;;;;;23.88;43.20;99927.84;3166831;28;19934;-74
2023/09/02 00:52:27;;;;;;;;;;;;;;;23.81;43.38;99930.25;3166772;28;19927;-74
2023/09/02 00:53:59;;;;;;;;;;;;;;;23.76;43.70;99933.38;3166758;28;20340;-74
2023/09/02 00:55:30;;;;;;;;;;;;;;;23.71;43.86;99930.31;3156530;28;20610;-74
2023/09/02 00:57:02;;;;;;;;;;;;;;;23.68;43.91;99930.59;3166532;28;20030;-73
2023/09/02 00:58:32;;;;;;;;;;;;;;;23.65;43.72;99930.06;3166914;28;19928;-73
2023/09/02 01:00:05;;;;;;;;;;;;;;;23.62;44.08;99928.53;3166854;28;19927;-74
2023/09/02 01:01:39;;;;;;;;;;;;;;;23.62;43.84;99928.53;3163806;28;19927;-73
2023/09/02 01:03:11;;;;;;;;;;;;;;;23.64;43.53;99928.41;3163557;28;19928;-74
2023/09/02 01:04:42;;;;;;;;;;;;;;;23.68;43.43;99925.28;3166727;28;20717;-74
2023/09/02 01:06:14;;;;;;;;;;;;;;;23.70;43.17;99931.31;3166997;28;19932;-74
2023/09/02 01:07:46;;;;;;;;;;;;;;;23.72;43.35;99924.03;3166710;28;19967;-74
2023/09/02 01:09:16;;;;;;;;;;;;;;;23.71;43.44;99927.66;3166416;28;19927;-74
2023/09/02 01:10:48;;;;;;;;;;;;;;;23.71;43.46;99925.00;3166749;28;19939;-74
2023/09/02 01:12:19;;;;;;;;;;;;;;;23.72;43.33;99926.69;3167006;28;20014;-75
2023/09/02 01:13:51;;;;;;;;;;;;;;;23.74;43.37;99929.19;3161008;28;20234;-74
2023/09/02 01:15:21;;;;;;;;;;;;;;;23.75;43.24;99925.53;3166720;28;20524;-74
2023/09/02 01:16:54;;;;;;;;;;;;;;;23.77;43.03;99931.53;3162263;28;19932;-74
2023/09/02 01:18:25;;;;;;;;;;;;;;;23.81;42.73;99933.75;3166866;28;20388;-74
2023/09/02 01:19:57;;;;;;;;;;;;;;;23.83;43.01;99934.44;3166748;28;19927;-74
2023/09/02 01:21:39;;;;;;;;;;;;;;;23.81;42.76;99936.41;3159019;28;19935;-74
2023/09/02 01:23:22;;;;;;;;;;;;;;;23.76;43.12;99936.03;3166767;28;19939;-73
2023/09/02 01:25:07;;;;;;;;;;;;;;;23.74;43.37;99935.34;3163844;28;19932;-74
2023/09/02 01:27:01;;;;;;;;;;;;;;;23.72;43.12;99933.81;3165232;27;19931;-74
2023/09/02 01:28:34;;;;;;;;;;;;;;;23.74;42.84;99935.34;3166415;28;19928;-74
2023/09/02 01:30:09;;;;;;;;;;;;;;;23.72;43.33;99939.13;3166630;28;19988;-74
2023/09/02 01:31:39;;;;;;;;;;;;;;;23.70;43.37;99933.16;3160372;28;19928;-74
2023/09/02 01:33:12;;;;;;;;;;;;;;;23.69;43.24;99940.22;3166560;28;19928;-74
2023/09/02 01:34:44;;;;;;;;;;;;;;;23.65;43.47;99938.88;3166365;28;19954;-74
2023/09/02 01:36:17;;;;;;;;;;;;;;;23.64;43.54;99939.03;3166788;28;19928;-74
2023/09/02 01:37:50;;;;;;;;;;;;;;;23.63;43.53;99932.84;3166404;28;21877;-74
2023/09/02 01:39:23;;;;;;;;;;;;;;;23.61;43.61;99938.34;3141652;28;19967;-74
2023/09/02 01:40:54;;;;;;;;;;;;;;;23.62;43.42;99933.84;3166035;28;19928;-74
2023/09/02 01:42:28;;;;;;;;;;;;;;;23.60;43.44;99933.16;3166605;28;19974;-74
2023/09/02 01:43:59;;;;;;;;;;;;;;;23.58;43.48;99933.31;3166443;28;19992;-74
2023/09/02 01:45:33;;;;;;;;;;;;;;;23.58;43.26;99935.16;3165249;28;19927;-74
2023/09/02 01:47:05;;;;;;;;;;;;;;;23.61;43.34;99940.16;3163680;28;19974;-73
2023/09/02 01:48:37;;;;;;;;;;;;;;;23.65;43.25;99941.53;3166121;28;19928;-74
2023/09/02 01:50:09;;;;;;;;;;;;;;;23.69;43.02;99945.53;3166305;28;20436;-75
2023/09/02 01:51:41;;;;;;;;;;;;;;;23.71;42.97;99943.63;3163862;28;20006;-74
2023/09/02 01:53:12;;;;;;;;;;;;;;;23.73;42.89;99941.66;3166144;28;19927;-74
2023/09/02 01:54:44;;;;;;;;;;;;;;;23.74;43.03;99935.34;3166308;28;20012;-74
2023/09/02 01:56:15;;;;;;;;;;;;;;;23.73;43.12;99936.34;3166461;28;19927;-74
2023/09/02 01:57:48;;;;;;;;;;;;;;;23.74;42.95;99942.47;3166516;28;19946;-75
2023/09/02 01:59:20;;;;;;;;;;;;;;;23.74;42.82;99939.81;3166210;28;19927;-75
2023/09/02 02:00:50;;;;;;;;;;;;;;;23.75;42.92;99937.03;3159067;28;20364;-74
2023/09/02 02:02:22;;;;;;;;;;;;;;;23.76;42.84;99937.84;3166463;28;19927;-74
2023/09/02 02:03:55;;;;;;;;;;;;;;;23.77;42.87;99942.19;3166146;28;19946;-74
2023/09/02 02:05:30;;;;;;;;;;;;;;;23.79;42.67;99940.22;3166267;28;19935;-74
2023/09/02 02:07:02;;;;;;;;;;;;;;;23.79;42.71;99943.69;3166184;28;20005;-74
2023/09/02 02:08:37;;;;;;;;;;;;;;;23.79;43.16;99941.03;3166470;28;19978;-75
2023/09/02 02:10:11;;;;;;;;;;;;;;;23.78;42.83;99943.84;3166448;28;20319;-74
2023/09/02 02:11:43;;;;;;;;;;;;;;;23.75;43.00;99944.13;3165913;28;20012;-74
2023/09/02 02:13:15;;;;;;;;;;;;;;;23.75;43.07;99944.13;3161133;28;19934;-74
2023/09/02 02:14:47;;;;;;;;;;;;;;;23.75;42.78;99939.69;3162432;28;20379;-74
2023/09/02 02:16:22;;;;;;;;;;;;;;;23.77;43.04;99945.66;3163636;28;19927;-74
2023/09/02 02:17:53;;;;;;;;;;;;;;;23.79;42.85;99938.38;3156645;28;19943;-74
2023/09/02 02:19:24;;;;;;;;;;;;;;;23.80;42.65;99936.56;3162780;28;19927;-74
2023/09/02 02:20:59;;;;;;;;;;;;;;;23.81;42.82;99936.41;3163083;28;19928;-74
2023/09/02 02:22:30;;;;;;;;;;;;;;;23.83;42.95;99930.94;3161390;28;19971;-74
2023/09/02 02:24:02;;;;;;;;;;;;;;;23.84;42.88;99940.59;3165755;28;19966;-74
2023/09/02 02:25:32;;;;;;;;;;;;;;;23.81;42.68;99932.91;3166222;28;20414;-74
2023/09/02 02:27:04;;;;;;;;;;;;;;;23.84;42.88;99943.25;3165694;28;20566;-74
2023/09/02 02:28:37;;;;;;;;;;;;;;;23.83;42.88;99933.59;3165649;28;19934;-74
2023/09/02 02:30:09;;;;;;;;;;;;;;;23.82;42.79;99940.75;3161421;28;19985;-74
2023/09/02 02:31:40;;;;;;;;;;;;;;;23.80;43.08;99942.72;3165910;28;19928;-74
2023/09/02 02:33:11;;;;;;;;;;;;;;;23.79;42.89;99937.56;3165607;28;20242;-74
2023/09/02 02:34:43;;;;;;;;;;;;;;;23.77;43.20;99943.00;3166075;28;19935;-74
2023/09/02 02:36:14;;;;;;;;;;;;;;;23.74;42.88;99940.66;3165771;28;19996;-74
2023/09/02 02:37:45;;;;;;;;;;;;;;;23.69;42.97;99934.91;3166255;28;20408;-74
2023/09/02 02:39:17;;;;;;;;;;;;;;;23.70;43.27;99941.13;3165892;28;19928;-74
2023/09/02 02:40:48;;;;;;;;;;;;;;;23.68;43.15;99937.72;3165710;28;19928;-74
2023/09/02 02:42:22;;;;;;;;;;;;;;;23.66;43.30;99937.88;3165945;28;20397;-74
2023/09/02 02:43:54;;;;;;;;;;;;;;;23.62;43.40;99933.84;3163504;28;20408;-74
2023/09/02 02:45:25;;;;;;;;;;;;;;;23.62;43.33;99929.38;3163011;28;19955;-74
2023/09/02 02:46:57;;;;;;;;;;;;;;;23.63;43.51;99935.50;3164234;28;19935;-74
2023/09/02 02:48:28;;;;;;;;;;;;;;;23.60;43.30;99935.81;3161427;28;19927;-74
2023/09/02 02:50:00;;;;;;;;;;;;;;;23.58;43.51;99935.97;3165913;28;19928;-75
2023/09/02 02:51:30;;;;;;;;;;;;;;;23.57;43.26;99930.78;3165650;28;19928;-74
2023/09/02 02:53:02;;;;;;;;;;;;;;;23.54;43.62;99937.25;3165665;28;20073;-74
2023/09/02 02:54:36;;;;;;;;;;;;;;;23.52;43.49;99928.59;3165382;28;20034;-74
2023/09/02 02:56:08;;;;;;;;;;;;;;;23.50;43.73;99925.25;3166020;28;19928;-74
2023/09/02 02:57:39;;;;;;;;;;;;;;;23.50;43.78;99927.91;3165478;28;19935;-74
2023/09/02 02:59:12;;;;;;;;;;;;;;;23.50;43.75;99925.25;3161663;28;19928;-74
2023/09/02 03:00:43;;;;;;;;;;;;;;;23.49;43.77;99928.91;3163246;28;19935;-74
2023/09/02 03:02:14;;;;;;;;;;;;;;;23.48;43.86;99926.38;3165019;28;19978;-74
2023/09/02 03:03:45;;;;;;;;;;;;;;;23.46;43.58;99934.53;3165883;28;19927;-74
2023/09/02 03:05:19;;;;;;;;;;;;;;;23.44;43.95;99927.69;3165503;28;20414;-75
2023/09/02 03:06:50;;;;;;;;;;;;;;;23.43;43.98;99929.50;3165730;28;20064;-74
2023/09/02 03:08:21;;;;;;;;;;;;;;;23.43;44.08;99926.00;3165611;28;20437;-74
2023/09/02 03:09:53;;;;;;;;;;;;;;;23.41;44.11;99931.47;3165483;28;20385;-74
2023/09/02 03:11:24;;;;;;;;;;;;;;;23.41;43.82;99933.28;3165440;28;19927;-74
2023/09/02 03:12:55;;;;;;;;;;;;;;;23.41;43.99;99933.28;3163309;28;20018;-75
2023/09/02 03:14:27;;;;;;;;;;;;;;;23.38;43.89;99931.75;3161091;28;19991;-75
2023/09/02 03:15:59;;;;;;;;;;;;;;;23.36;44.12;99936.38;3165253;28;20489;-74
2023/09/02 03:17:30;;;;;;;;;;;;;;;23.35;44.20;99934.72;3159585;28;19927;-75
2023/09/02 03:19:01;;;;;;;;;;;;;;;23.34;43.97;99941.84;3159312;28;19927;-75
2023/09/02 03:20:32;;;;;;;;;;;;;;;23.35;44.33;99937.38;3165211;28;19928;-75
2023/09/02 03:22:04;;;;;;;;;;;;;;;23.34;44.34;99939.19;3165119;28;19928;-75
2023/09/02 03:23:35;;;;;;;;;;;;;;;23.33;44.00;99939.34;3165372;28;20027;-75
2023/09/02 03:25:07;;;;;;;;;;;;;;;23.31;44.23;99943.97;3165072;28;20411;-74
2023/09/02 03:26:39;;;;;;;;;;;;;;;23.29;44.64;99932.66;3164904;28;20057;-75
2023/09/02 03:28:09;;;;;;;;;;;;;;;23.28;44.29;99936.28;3159794;28;20714;-75
2023/09/02 03:29:42;;;;;;;;;;;;;;;23.28;44.43;99937.13;3165248;28;19950;-74
2023/09/02 03:31:13;;;;;;;;;;;;;;;23.28;44.48;99937.13;3165211;28;20400;-75
2023/09/02 03:32:45;;;;;;;;;;;;;;;23.26;44.63;99944.41;3165223;28;19928;-75
2023/09/02 03:34:15;;;;;;;;;;;;;;;23.21;44.40;99946.66;3165348;28;19934;-75
2023/09/02 03:35:48;;;;;;;;;;;;;;;23.17;44.53;99946.13;3165259;28;20260;-75
2023/09/02 03:37:18;;;;;;;;;;;;;;;23.13;44.60;99949.22;3164847;28;19934;-75
2023/09/02 03:38:50;;;;;;;;;;;;;;;23.05;44.99;99943.81;3164876;28;20526;-75
2023/09/02 03:40:20;;;;;;;;;;;;;;;23.01;45.03;99945.06;3165270;28;19927;-75
2023/09/02 03:41:52;;;;;;;;;;;;;;;22.97;45.39;99949.84;3165129;28;19928;-75
2023/09/02 03:43:22;;;;;;;;;;;;;;;22.92;45.22;99952.06;3157665;28;19951;-75
2023/09/02 03:44:55;;;;;;;;;;;;;;;22.89;45.36;99945.25;3157957;28;19934;-75
2023/09/02 03:46:27;;;;;;;;;;;;;;;22.87;45.61;99956.97;3165202;28;19928;-75
2023/09/02 03:47:58;;;;;;;;;;;;;;;22.83;45.54;99953.75;3164934;28;19928;-75
2023/09/02 03:49:29;;;;;;;;;;;;;;;22.80;45.68;99954.03;3164804;28;19928;-75
2023/09/02 03:51:03;;;;;;;;;;;;;;;22.79;45.50;99964.81;3165190;28;19988;-75
2023/09/02 03:52:35;;;;;;;;;;;;;;;22.76;45.85;99965.94;3165002;28;19987;-75
2023/09/02 03:54:06;;;;;;;;;;;;;;;22.74;45.70;99964.41;3164964;28;19935;-75
2023/09/02 03:55:38;;;;;;;;;;;;;;;22.73;45.65;99963.56;3164479;28;20309;-74
2023/09/02 03:57:08;;;;;;;;;;;;;;;22.73;45.86;99963.56;3161535;28;20374;-75
2023/09/02 03:58:40;;;;;;;;;;;;;;;22.72;45.70;99969.88;3164320;28;20137;-75
2023/09/02 04:00:13;;;;;;;;;;;;;;;22.69;46.06;99973.66;3165237;28;19927;-74
2023/09/02 04:01:44;;;;;;;;;;;;;;;22.66;46.05;99965.16;3161975;28;19928;-75
2023/09/02 04:03:19;;;;;;;;;;;;;;;22.63;46.31;99968.09;3165268;28;19935;-75
2023/09/02 04:04:50;;;;;;;;;;;;;;;22.60;46.41;99968.38;3164681;28;19950;-74
2023/09/02 04:06:21;;;;;;;;;;;;;;;22.60;46.50;99965.72;3164874;28;20703;-75
2023/09/02 04:07:53;;;;;;;;;;;;;;;22.60;46.25;99968.38;3164734;28;20003;-75
2023/09/02 04:09:25;;;;;;;;;;;;;;;22.61;46.33;99972.69;3164827;28;19978;-74
2023/09/02 04:10:56;;;;;;;;;;;;;;;22.60;46.27;99965.72;3165167;28;19950;-75
2023/09/02 04:12:27;;;;;;;;;;;;;;;22.61;46.44;99970.03;3160392;28;19928;-75
2023/09/02 04:13:58;;;;;;;;;;;;;;;22.63;46.48;99965.44;3158324;28;19928;-74
2023/09/02 04:15:31;;;;;;;;;;;;;;;22.65;46.23;99966.94;3165295;28;19928;-75
2023/09/02 04:17:02;;;;;;;;;;;;;;;22.68;46.31;99965.81;3164697;28;19938;-75
2023/09/02 04:18:33;;;;;;;;;;;;;;;22.66;46.58;99967.81;3164610;28;19932;-74
2023/09/02 04:20:05;;;;;;;;;;;;;;;22.64;46.40;99975.06;3165161;28;20064;-75
2023/09/02 04:21:35;;;;;;;;;;;;;;;22.64;46.51;99980.38;3164697;28;19934;-75
2023/09/02 04:23:07;;;;;;;;;;;;;;;22.63;46.49;99978.69;3165172;28;19927;-74
2023/09/02 04:24:39;;;;;;;;;;;;;;;22.64;46.49;99981.19;3164566;28;19932;-75
2023/09/02 04:26:09;;;;;;;;;;;;;;;22.65;46.55;99982.03;3162129;28;20420;-75
2023/09/02 04:27:41;;;;;;;;;;;;;;;22.65;46.80;99977.56;3162595;28;19927;-73
2023/09/02 04:29:11;;;;;;;;;;;;;;;22.64;46.72;99985.69;3164904;28;19928;-75
2023/09/02 04:30:45;;;;;;;;;;;;;;;22.63;46.87;99984.00;3164951;28;19927;-75
2023/09/02 04:32:15;;;;;;;;;;;;;;;22.62;46.55;99990.28;3165058;28;19947;-74
2023/09/02 04:33:47;;;;;;;;;;;;;;;22.61;46.87;99992.09;3164749;28;19928;-75
2023/09/02 04:35:17;;;;;;;;;;;;;;;22.62;46.77;99988.47;3164902;28;19928;-75
2023/09/02 04:36:49;;;;;;;;;;;;;;;22.60;47.41;99994.91;3164761;28;19928;-74
2023/09/02 04:38:19;;;;;;;;;;;;;;;22.50;48.11;99994.91;3164694;28;20457;-75
2023/09/02 04:39:52;;;;;;;;;;;;;;;22.44;48.25;99996.28;3163790;28;20004;-75
2023/09/02 04:41:23;;;;;;;;;;;;;;;22.44;48.10;99996.28;3160615;28;20460;-75
2023/09/02 04:42:55;;;;;;;;;;;;;;;22.43;48.20;100001.75;3164618;28;19980;-75
2023/09/02 04:44:26;;;;;;;;;;;;;;;22.44;48.10;99996.28;3164678;28;20463;-75
2023/09/02 04:46:01;;;;;;;;;;;;;;;22.47;47.79;99996.00;3164537;28;19928;-75
2023/09/02 04:47:31;;;;;;;;;;;;;;;22.51;47.81;99998.38;3164261;28;19975;-76
2023/09/02 04:49:03;;;;;;;;;;;;;;;22.54;47.68;100001.63;3165334;28;19934;-75
2023/09/02 04:50:34;;;;;;;;;;;;;;;22.58;47.43;100010.97;3164600;28;20393;-74
2023/09/02 04:52:06;;;;;;;;;;;;;;;22.60;47.65;100005.53;3164646;28;19950;-75
2023/09/02 04:53:37;;;;;;;;;;;;;;;22.62;47.62;100000.91;3153688;28;19947;-75
2023/09/02 04:55:08;;;;;;;;;;;;;;;22.64;47.52;100001.59;3161318;28;19928;-75
2023/09/02 04:56:39;;;;;;;;;;;;;;;22.64;47.75;100004.25;3161365;28;20359;-75
2023/09/02 04:58:10;;;;;;;;;;;;;;;22.65;47.76;100003.25;3164582;28;19927;-75
2023/09/02 04:59:41;;;;;;;;;;;;;;;22.65;47.68;99997.97;3164484;28;19935;-74
2023/09/02 05:01:14;;;;;;;;;;;;;;;22.68;47.76;100005.63;3162211;28;20472;-75
2023/09/02 05:02:46;;;;;;;;;;;;;;;22.71;47.35;100003.53;3164234;28;19947;-74
2023/09/02 05:04:17;;;;;;;;;;;;;;;22.75;47.42;100004.09;3164351;28;20422;-74
2023/09/02 05:05:48;;;;;;;;;;;;;;;22.80;47.39;100006.31;3164694;28;19928;-75
2023/09/02 05:07:19;;;;;;;;;;;;;;;22.82;47.35;100005.19;3166386;28;19928;-74
2023/09/02 05:08:54;;;;;;;;;;;;;;;22.81;47.24;100006.19;3166565;28;19932;-73
2023/09/02 05:10:24;;;;;;;;;;;;;;;22.83;47.34;100006.03;3159484;28;20534;-74
2023/09/02 05:11:56;;;;;;;;;;;;;;;22.86;47.30;100006.56;3166894;28;19928;-74
2023/09/02 05:13:26;;;;;;;;;;;;;;;22.90;47.17;100007.97;3160909;28;19928;-74
2023/09/02 05:14:58;;;;;;;;;;;;;;;22.91;47.01;100008.81;3166948;28;19963;-74
2023/09/02 05:16:31;;;;;;;;;;;;;;;22.93;47.06;100015.66;3166893;28;19928;-75
2023/09/02 05:18:02;;;;;;;;;;;;;;;22.92;47.32;100021.09;3166613;28;20700;-74
2023/09/02 05:19:33;;;;;;;;;;;;;;;22.90;47.24;100023.09;3166566;28;19928;-74
2023/09/02 05:21:04;;;;;;;;;;;;;;;22.85;47.87;100015.53;3166497;28;19939;-75
2023/09/02 05:22:36;;;;;;;;;;;;;;;22.83;47.85;100020.13;3166717;28;19928;-74
2023/09/02 05:24:08;;;;;;;;;;;;;;;22.82;47.73;100015.81;3166539;28;19934;-74
2023/09/02 05:25:38;;;;;;;;;;;;;;;22.85;47.98;100010.22;3162413;28;20349;-74
2023/09/02 05:27:10;;;;;;;;;;;;;;;22.82;48.00;100007.84;3166268;28;19934;-74
2023/09/02 05:28:40;;;;;;;;;;;;;;;22.84;47.99;100005.91;3161498;28;20320;-74
2023/09/02 05:30:12;;;;;;;;;;;;;;;22.87;47.96;100010.09;3158131;28;19939;-75
2023/09/02 05:31:45;;;;;;;;;;;;;;;22.89;47.96;100016.94;3166277;28;19928;-74
2023/09/02 05:33:16;;;;;;;;;;;;;;;22.96;47.92;100011.09;3166510;28;20329;-74
2023/09/02 05:34:48;;;;;;;;;;;;;;;23.02;47.71;100015.81;3166705;28;19991;-74
2023/09/02 05:36:19;;;;;;;;;;;;;;;23.12;47.45;100012.13;3155731;28;21405;-74
2023/09/02 05:37:50;;;;;;;;;;;;;;;23.24;47.16;100010.13;3166386;28;20030;-74
2023/09/02 05:39:21;;;;;;;;;;;;;;;23.37;47.12;100012.47;3161470;28;20475;-75
2023/09/02 05:40:53;;;;;;;;;;;;;;;23.52;46.92;100012.84;3165836;28;20118;-74
2023/09/02 05:42:23;;;;;;;;;;;;;;;23.65;46.71;100005.34;3166400;28;19950;-75
2023/09/02 05:43:55;;;;;;;;;;;;;;;23.80;46.61;100001.22;3166589;28;19939;-75
2023/09/02 05:45:25;;;;;;;;;;;;;;;23.96;46.60;100007.69;3166965;28;20403;-74
2023/09/02 05:46:58;;;;;;;;;;;;;;;24.11;46.31;100000.88;3166523;28;19940;-74
2023/09/02 05:48:29;;;;;;;;;;;;;;;24.23;46.11;100001.50;3166694;28;20312;-72
2023/09/02 05:50:02;;;;;;;;;;;;;;;24.38;45.80;100007.94;3166240;28;19954;-74
2023/09/02 05:51:32;;;;;;;;;;;;;;;24.53;46.00;100013.59;3166620;28;20098;-73
2023/09/02 05:53:04;;;;;;;;;;;;;;;24.66;45.48;100014.00;3166900;28;19928;-73
2023/09/02 05:54:35;;;;;;;;;;;;;;;24.83;45.61;100014.97;3162673;28;19935;-73
2023/09/02 05:56:06;;;;;;;;;;;;;;;25.02;45.07;100016.56;3166167;28;19927;-74
2023/09/02 05:57:37;;;;;;;;;;;;;;;25.14;45.26;100015.38;3166348;28;19947;-73
2023/09/02 05:59:08;;;;;;;;;;;;;;;25.18;45.13;100021.22;3166563;28;20040;-73
2023/09/02 06:00:39;;;;;;;;;;;;;;;25.20;45.20;100016.53;3162609;28;19928;-73
2023/09/02 06:02:12;;;;;;;;;;;;;;;25.25;45.19;100013.41;3166447;28;19939;-72
2023/09/02 06:03:43;;;;;;;;;;;;;;;25.36;45.39;100024.63;3166323;28;20467;-74
2023/09/02 06:05:14;;;;;;;;;;;;;;;25.50;45.00;100028.53;3165715;28;20250;-73
2023/09/02 06:06:45;;;;;;;;;;;;;;;25.64;45.17;100027.94;3155725;28;19939;-73
2023/09/02 06:08:17;;;;;;;;;;;;;;;25.77;44.97;100021.31;3162137;28;20320;-74
2023/09/02 06:09:49;;;;;;;;;;;;;;;25.87;44.67;100019.34;3158466;28;19928;-73
2023/09/02 06:11:19;;;;;;;;;;;;;;;25.99;44.83;100025.22;3162068;28;19946;-73
2023/09/02 06:12:51;;;;;;;;;;;;;;;26.17;44.61;100027.75;3164596;27;19927;-73
2023/09/02 06:14:22;;;;;;;;;;;;;;;26.33;44.29;100028.63;3160578;28;20317;-73
2023/09/02 06:15:57;;;;;;;;;;;;;;;26.49;43.89;100033.16;3165844;28;19928;-73
2023/09/02 06:17:31;;;;;;;;;;;;;;;26.61;43.83;100022.97;3165994;28;20370;-75
2023/09/02 06:19:03;;;;;;;;;;;;;;;26.78;43.48;100031.81;3165814;28;20423;-74
2023/09/02 06:20:34;;;;;;;;;;;;;;;26.89;43.69;100041.34;3165802;28;20435;-74
2023/09/02 06:22:05;;;;;;;;;;;;;;;26.98;43.38;100038.47;3165967;28;20405;-74
2023/09/02 06:23:37;;;;;;;;;;;;;;;27.09;43.30;100039.13;3161576;28;19928;-74
2023/09/02 06:25:08;;;;;;;;;;;;;;;27.20;42.79;100038.78;3165983;28;20167;-74
2023/09/02 06:26:39;;;;;;;;;;;;;;;27.23;43.00;100033.94;3166268;28;20422;-74
2023/09/02 06:28:10;;;;;;;;;;;;;;;27.29;42.51;100039.59;3165921;28;19949;-74
2023/09/02 06:29:44;;;;;;;;;;;;;;;27.39;42.83;100040.22;3166033;28;20034;-74
2023/09/02 06:31:14;;;;;;;;;;;;;;;27.46;42.63;100033.19;3141033;28;19928;-74
2023/09/02 06:32:47;;;;;;;;;;;;;;;27.55;42.22;100031.31;3156394;28;19931;-74
2023/09/02 06:34:22;;;;;;;;;;;;;;;27.61;42.31;100036.81;3164724;28;20403;-74
2023/09/02 06:35:53;;;;;;;;;;;;;;;27.63;42.30;100033.97;3165648;28;20015;-74
2023/09/02 06:37:24;;;;;;;;;;;;;;;27.67;41.71;100030.75;3165071;28;20324;-75
2023/09/02 06:38:55;;;;;;;;;;;;;;;27.74;41.96;100036.25;3162259;28;20472;-74
2023/09/02 06:40:30;;;;;;;;;;;;;;;27.76;41.42;100030.72;3166057;28;19932;-75
2023/09/02 06:42:00;;;;;;;;;;;;;;;27.73;41.88;100037.25;3157844;28;19981;-74
2023/09/02 06:43:32;;;;;;;;;;;;;;;27.76;41.50;100031.56;3160812;28;20022;-74
2023/09/02 06:45:04;;;;;;;;;;;;;;;27.72;41.60;100032.94;3165456;28;20463;-74
2023/09/02 06:46:37;;;;;;;;;;;;;;;27.67;41.61;100036.09;3159714;28;20139;-74
2023/09/02 06:48:09;;;;;;;;;;;;;;;27.63;41.61;100031.31;3158633;28;19935;-74
2023/09/02 06:49:40;;;;;;;;;;;;;;;27.55;41.36;100034.81;3165317;28;19928;-74
2023/09/02 06:51:11;;;;;;;;;;;;;;;27.60;41.54;100035.16;3165619;28;19927;-74
2023/09/02 06:52:42;;;;;;;;;;;;;;;27.71;41.17;100039.25;3161314;28;19932;-74
2023/09/02 06:54:14;;;;;;;;;;;;;;;27.82;41.31;100032.72;3161347;28;19935;-74
2023/09/02 06:55:44;;;;;;;;;;;;;;;27.91;40.83;100037.03;3165255;28;19932;-74
2023/09/02 06:57:16;;;;;;;;;;;;;;;28.02;40.51;100025.94;3165579;28;20389;-74
2023/09/02 06:58:48;;;;;;;;;;;;;;;28.15;40.25;100036.03;3165828;28;19927;-74
2023/09/02 07:00:18;;;;;;;;;;;;;;;28.25;40.38;100038.50;3165159;28;20684;-73
2023/09/02 07:01:50;;;;;;;;;;;;;;;28.33;40.37;100031.22;3163445;28;19928;-74
2023/09/02 07:03:22;;;;;;;;;;;;;;;28.45;40.09;100038.88;3163679;28;19928;-74
2023/09/02 07:04:53;;;;;;;;;;;;;;;28.59;39.77;100035.41;3165288;28;19978;-74
2023/09/02 07:06:24;;;;;;;;;;;;;;;28.74;39.96;100032.78;3158220;28;19928;-74
2023/09/02 07:07:55;;;;;;;;;;;;;;;28.88;39.68;100034.66;3161527;28;20409;-74
2023/09/02 07:09:26;;;;;;;;;;;;;;;29.02;39.67;100038.41;3165579;28;19928;-74
2023/09/02 07:10:57;;;;;;;;;;;;;;;29.04;39.21;100036.34;3158372;28;19939;-75
2023/09/02 07:12:28;;;;;;;;;;;;;;;29.13;39.11;100035.25;3158923;28;20324;-74
2023/09/02 07:13:59;;;;;;;;;;;;;;;29.27;39.06;100036.28;3159478;28;19928;-74
2023/09/02 07:15:30;;;;;;;;;;;;;;;29.42;39.00;100037.09;3165051;28;19938;-74
2023/09/02 07:17:01;;;;;;;;;;;;;;;29.66;38.61;100038.69;3165650;28;19927;-75
2023/09/02 07:18:34;;;;;;;;;;;;;;;29.96;38.41;100033.25;3165368;28;20458;-74
2023/09/02 07:20:06;;;;;;;;;;;;;;;30.32;38.01;100035.13;3165293;28;19928;-74
2023/09/02 07:21:37;;;;;;;;;;;;;;;30.61;37.66;100039.50;3160851;28;20344;-73
2023/09/02 07:23:08;;;;;;;;;;;;;;;30.87;36.63;100046.97;3164870;28;20000;-72
2023/09/02 07:24:40;;;;;;;;;;;;;;;31.05;36.37;100039.22;3165135;28;20457;-72
2023/09/02 07:26:10;;;;;;;;;;;;;;;31.17;35.85;100044.06;3164954;28;20379;-73
2023/09/02 07:27:42;;;;;;;;;;;;;;;31.28;35.26;100043.53;3165300;28;19927;-72
2023/09/02 07:29:13;;;;;;;;;;;;;;;31.53;35.27;100045.75;3164172;28;19931;-72
2023/09/02 07:30:44;;;;;;;;;;;;;;;31.77;34.69;100037.16;3164737;28;20484;-73
2023/09/02 07:32:15;;;;;;;;;;;;;;;31.94;34.45;100043.84;3164645;28;19932;-73
2023/09/02 07:33:47;;;;;;;;;;;;;;;32.19;34.25;100035.22;3164962;28;20393;-73
2023/09/02 07:35:19;;;;;;;;;;;;;;;32.51;33.58;100035.47;3164893;28;19934;-73
2023/09/02 07:36:50;;;;;;;;;;;;;;;32.62;33.04;100040.25;3159050;28;19935;-72
2023/09/02 07:38:21;;;;;;;;;;;;;;;32.67;33.08;100040.47;3164773;28;20340;-73
2023/09/02 07:39:52;;;;;;;;;;;;;;;32.89;32.94;100034.84;3165002;28;19947;-73
2023/09/02 07:41:23;;;;;;;;;;;;;;;33.04;32.63;100043.56;3164585;28;19950;-73
2023/09/02 07:42:54;;;;;;;;;;;;;;;33.25;32.49;100039.81;3164685;28;19928;-73
2023/09/02 07:44:25;;;;;;;;;;;;;;;33.40;32.13;100035.00;3165105;28;19942;-73
2023/09/02 07:45:57;;;;;;;;;;;;;;;33.59;31.57;100035.16;3165114;28;19980;-74
2023/09/02 07:47:27;;;;;;;;;;;;;;;33.64;31.40;100036.19;3164872;28;20473;-73
2023/09/02 07:49:00;;;;;;;;;;;;;;;33.75;31.37;100030.09;3164698;28;19928;-73
2023/09/02 07:50:31;;;;;;;;;;;;;;;33.91;31.24;100034.16;3162702;28;19934;-73
2023/09/02 07:52:03;;;;;;;;;;;;;;;34.02;30.68;100039.91;3162462;28;19927;-73
2023/09/02 07:53:33;;;;;;;;;;;;;;;34.13;30.71;100025.75;3164745;28;19935;-73
2023/09/02 07:55:05;;;;;;;;;;;;;;;34.31;30.33;100033.09;3164368;28;20744;-73